createdAt,value
2023-04-09T00:00:35.418Z,984.16
2023-04-09T00:01:35.356Z,984.16
2023-04-09T00:02:35.299Z,984.11
2023-04-09T00:03:35.283Z,984.11
2023-04-09T00:04:35.121Z,984.13
2023-04-09T00:05:34.995Z,984.08
2023-04-09T00:06:34.914Z,984.08
2023-04-09T00:07:34.836Z,984.10
2023-04-09T00:08:34.750Z,984.10
2023-04-09T00:09:34.672Z,984.13
2023-04-09T00:10:34.582Z,984.13
2023-04-09T00:11:34.495Z,984.09
2023-04-09T00:12:34.427Z,984.08
2023-04-09T00:13:39.006Z,984.09
2023-04-09T00:14:34.263Z,984.06
2023-04-09T00:15:34.166Z,984.07
2023-04-09T00:16:34.105Z,984.05
2023-04-09T00:17:34.021Z,984.06
2023-04-09T00:18:33.917Z,984.07
2023-04-09T00:19:33.838Z,984.01
2023-04-09T00:20:33.750Z,984.06
2023-04-09T00:21:33.663Z,984.06
2023-04-09T00:22:33.588Z,984.05
2023-04-09T00:23:33.507Z,984.05
2023-04-09T00:24:33.425Z,984.07
2023-04-09T00:25:33.329Z,984.04
2023-04-09T00:26:33.263Z,984.05
2023-04-09T00:27:33.167Z,984.03
2023-04-09T00:28:33.094Z,984.03
2023-04-09T00:29:33.010Z,984.05
2023-04-09T00:30:32.922Z,984.06
2023-04-09T00:31:32.849Z,984.08
2023-04-09T00:32:32.778Z,984.11
2023-04-09T00:33:32.691Z,984.11
2023-04-09T00:34:32.587Z,984.10
2023-04-09T00:35:32.534Z,984.09
2023-04-09T00:36:32.422Z,984.11
2023-04-09T00:37:32.341Z,984.10
2023-04-09T00:38:32.268Z,984.08
2023-04-09T00:39:32.174Z,984.07
2023-04-09T00:40:32.093Z,984.06
2023-04-09T00:41:32.001Z,984.05
2023-04-09T00:42:31.921Z,984.06
2023-04-09T00:43:31.829Z,984.05
2023-04-09T00:44:31.758Z,984.06
2023-04-09T00:45:31.686Z,984.04
2023-04-09T00:46:31.584Z,984.06
2023-04-09T00:47:31.561Z,984.04
2023-04-09T00:48:31.413Z,984.06
2023-04-09T00:49:31.343Z,984.07
2023-04-09T00:50:31.273Z,984.07
2023-04-09T00:51:31.170Z,984.06
2023-04-09T00:52:31.093Z,984.06
2023-04-09T00:53:30.999Z,984.03
2023-04-09T00:54:30.925Z,984.06
2023-04-09T00:55:30.833Z,984.03
2023-04-09T00:56:30.748Z,984.05
2023-04-09T00:57:30.668Z,984.05
2023-04-09T00:58:30.583Z,984.04
2023-04-09T00:59:30.512Z,984.05
2023-04-09T01:00:30.423Z,984.08
2023-04-09T01:01:30.526Z,984.09
2023-04-09T01:02:30.373Z,984.07
2023-04-09T01:03:30.265Z,984.10
2023-04-09T01:04:30.083Z,984.06
2023-04-09T01:05:29.996Z,984.07
2023-04-09T01:06:29.913Z,984.09
2023-04-09T01:07:29.839Z,984.08
2023-04-09T01:08:29.766Z,984.11
2023-04-09T01:09:29.662Z,984.12
2023-04-09T01:10:29.583Z,984.13
2023-04-09T01:11:29.499Z,984.09
2023-04-09T01:12:29.415Z,984.08
2023-04-09T01:13:29.326Z,984.09
2023-04-09T01:14:29.249Z,984.05
2023-04-09T01:15:29.163Z,984.08
2023-04-09T01:16:29.165Z,984.09
2023-04-09T01:17:29.037Z,984.10
2023-04-09T01:18:28.918Z,984.06
2023-04-09T01:19:28.829Z,984.08
2023-04-09T01:20:28.743Z,984.04
2023-04-09T01:21:28.671Z,984.04
2023-04-09T01:22:28.587Z,984.04
2023-04-09T01:23:28.505Z,984.03
2023-04-09T01:24:28.416Z,984.00
2023-04-09T01:25:28.327Z,984.02
2023-04-09T01:26:28.247Z,983.99
2023-04-09T01:27:28.160Z,983.98
2023-04-09T01:28:28.077Z,983.98
2023-04-09T01:29:27.993Z,984.00
2023-04-09T01:30:27.955Z,983.97
2023-04-09T01:31:27.834Z,983.98
2023-04-09T01:32:27.778Z,983.97
2023-04-09T01:33:27.660Z,983.98
2023-04-09T01:34:27.601Z,983.99
2023-04-09T01:35:27.494Z,983.98
2023-04-09T01:36:27.413Z,983.97
2023-04-09T01:37:27.328Z,984.00
2023-04-09T01:38:27.241Z,983.98
2023-04-09T01:39:27.172Z,983.98
2023-04-09T01:40:27.077Z,983.97
2023-04-09T01:41:26.992Z,983.98
2023-04-09T01:42:26.911Z,983.97
2023-04-09T01:43:26.831Z,983.99
2023-04-09T01:44:26.746Z,983.99
2023-04-09T01:45:26.660Z,983.97
2023-04-09T01:46:26.604Z,983.99
2023-04-09T01:47:26.542Z,984.01
2023-04-09T01:48:26.422Z,983.97
2023-04-09T01:49:26.332Z,983.99
2023-04-09T01:50:26.249Z,983.98
2023-04-09T01:51:26.159Z,983.99
2023-04-09T01:52:26.086Z,984.00
2023-04-09T01:53:25.992Z,984.01
2023-04-09T01:54:25.923Z,984.03
2023-04-09T01:55:25.829Z,984.01
2023-04-09T01:56:25.745Z,984.02
2023-04-09T01:57:25.659Z,984.00
2023-04-09T01:58:25.583Z,984.02
2023-04-09T01:59:25.508Z,983.99
2023-04-09T02:00:25.420Z,984.00
2023-04-09T02:01:25.385Z,984.03
2023-04-09T02:02:25.327Z,984.01
2023-04-09T02:03:25.211Z,984.02
2023-04-09T02:04:25.077Z,984.04
2023-04-09T02:05:24.994Z,984.03
2023-04-09T02:06:24.908Z,984.01
2023-04-09T02:07:24.822Z,984.06
2023-04-09T02:08:24.741Z,984.06
2023-04-09T02:09:24.664Z,984.07
2023-04-09T02:10:24.574Z,984.08
2023-04-09T02:11:24.490Z,984.11
2023-04-09T02:12:24.405Z,984.12
2023-04-09T02:13:24.325Z,984.09
2023-04-09T02:14:24.245Z,984.09
2023-04-09T02:15:24.159Z,984.12
2023-04-09T02:16:24.073Z,984.12
2023-04-09T02:17:24.009Z,984.10
2023-04-09T02:18:23.908Z,984.11
2023-04-09T02:19:23.819Z,984.09
2023-04-09T02:20:23.755Z,984.11
2023-04-09T02:21:23.653Z,984.12
2023-04-09T02:22:23.572Z,984.11
2023-04-09T02:23:23.498Z,984.15
2023-04-09T02:24:23.407Z,984.14
2023-04-09T02:25:23.321Z,984.14
2023-04-09T02:26:23.240Z,984.16
2023-04-09T02:27:23.278Z,984.14
2023-04-09T02:28:23.085Z,984.16
2023-04-09T02:29:22.990Z,984.14
2023-04-09T02:30:22.907Z,984.17
2023-04-09T02:31:22.867Z,984.11
2023-04-09T02:32:22.814Z,984.13
2023-04-09T02:33:22.648Z,984.12
2023-04-09T02:34:22.571Z,984.15
2023-04-09T02:35:22.493Z,984.13
2023-04-09T02:36:22.402Z,984.15
2023-04-09T02:37:22.319Z,984.15
2023-04-09T02:38:22.236Z,984.13
2023-04-09T02:39:22.174Z,984.15
2023-04-09T02:40:22.072Z,984.13
2023-04-09T02:41:21.989Z,984.10
2023-04-09T02:42:21.903Z,984.11
2023-04-09T02:43:21.818Z,984.08
2023-04-09T02:44:21.732Z,984.08
2023-04-09T02:45:21.646Z,984.05
2023-04-09T02:46:21.582Z,984.06
2023-04-09T02:47:21.490Z,984.08
2023-04-09T02:48:21.397Z,984.10
2023-04-09T02:49:21.312Z,984.12
2023-04-09T02:50:21.306Z,984.12
2023-04-09T02:51:21.149Z,984.11
2023-04-09T02:52:21.067Z,984.08
2023-04-09T02:53:20.979Z,984.06
2023-04-09T02:54:20.900Z,984.05
2023-04-09T02:55:20.813Z,984.04
2023-04-09T02:56:20.734Z,984.06
2023-04-09T02:57:20.641Z,984.03
2023-04-09T02:58:20.567Z,984.06
2023-04-09T02:59:20.485Z,984.05
2023-04-09T03:00:20.398Z,984.05
2023-04-09T03:01:20.365Z,984.01
2023-04-09T03:02:20.315Z,983.99
2023-04-09T03:03:20.309Z,983.97
2023-04-09T03:04:20.132Z,983.96
2023-04-09T03:05:19.980Z,983.95
2023-04-09T03:06:19.904Z,983.94
2023-04-09T03:07:19.827Z,983.90
2023-04-09T03:08:19.740Z,983.90
2023-04-09T03:09:19.643Z,983.92
2023-04-09T03:10:19.562Z,983.89
2023-04-09T03:11:19.473Z,983.89
2023-04-09T03:12:19.394Z,983.91
2023-04-09T03:13:19.305Z,983.89
2023-04-09T03:14:19.221Z,983.88
2023-04-09T03:15:19.154Z,983.89
2023-04-09T03:16:19.147Z,983.86
2023-04-09T03:17:18.972Z,983.82
2023-04-09T03:18:18.887Z,983.82
2023-04-09T03:19:18.806Z,983.82
2023-04-09T03:20:18.723Z,983.83
2023-04-09T03:21:18.635Z,983.84
2023-04-09T03:22:18.556Z,983.85
2023-04-09T03:23:18.469Z,983.90
2023-04-09T03:24:18.384Z,983.92
2023-04-09T03:25:18.299Z,983.93
2023-04-09T03:26:18.220Z,983.93
2023-04-09T03:27:18.132Z,983.94
2023-04-09T03:28:18.055Z,983.95
2023-04-09T03:29:17.960Z,983.94
2023-04-09T03:30:17.876Z,983.96
2023-04-09T03:31:17.835Z,983.99
2023-04-09T03:32:19.076Z,983.98
2023-04-09T03:33:17.627Z,983.99
2023-04-09T03:34:17.540Z,983.97
2023-04-09T03:35:17.465Z,983.98
2023-04-09T03:36:17.375Z,983.98
2023-04-09T03:37:17.289Z,983.96
2023-04-09T03:38:17.213Z,983.99
2023-04-09T03:39:17.124Z,984.02
2023-04-09T03:40:17.051Z,984.00
2023-04-09T03:41:16.957Z,983.98
2023-04-09T03:42:16.871Z,984.02
2023-04-09T03:43:16.792Z,984.02
2023-04-09T03:44:16.706Z,984.01
2023-04-09T03:45:16.617Z,984.02
2023-04-09T03:46:16.563Z,984.03
2023-04-09T03:47:16.454Z,984.07
2023-04-09T03:48:16.366Z,984.05
2023-04-09T03:49:16.282Z,984.05
2023-04-09T03:50:16.198Z,984.03
2023-04-09T03:51:16.114Z,984.07
2023-04-09T03:52:16.028Z,984.09
2023-04-09T03:53:15.945Z,984.08
2023-04-09T03:54:15.858Z,984.08
2023-04-09T03:55:15.786Z,984.14
2023-04-09T03:56:15.687Z,984.15
2023-04-09T03:57:15.601Z,984.16
2023-04-09T03:58:15.522Z,984.15
2023-04-09T03:59:15.433Z,984.15
2023-04-09T04:00:15.348Z,984.14
2023-04-09T04:01:15.265Z,984.15
2023-04-09T04:02:15.247Z,984.17
2023-04-09T04:03:15.219Z,984.16
2023-04-09T04:04:15.168Z,984.15
2023-04-09T04:05:14.932Z,984.16
2023-04-09T04:06:14.839Z,984.16
2023-04-09T04:07:14.771Z,984.18
2023-04-09T04:08:14.669Z,984.15
2023-04-09T04:09:14.587Z,984.15
2023-04-09T04:10:14.506Z,984.18
2023-04-09T04:11:14.441Z,984.17
2023-04-09T04:12:14.339Z,984.17
2023-04-09T04:13:14.279Z,984.15
2023-04-09T04:14:14.164Z,984.14
2023-04-09T04:15:14.088Z,984.14
2023-04-09T04:16:14.017Z,984.16
2023-04-09T04:17:13.925Z,984.15
2023-04-09T04:18:13.824Z,984.14
2023-04-09T04:19:13.747Z,984.15
2023-04-09T04:20:13.663Z,984.17
2023-04-09T04:21:13.572Z,984.21
2023-04-09T04:22:13.484Z,984.20
2023-04-09T04:23:13.427Z,984.19
2023-04-09T04:24:13.320Z,984.19
2023-04-09T04:25:13.236Z,984.22
2023-04-09T04:26:13.148Z,984.23
2023-04-09T04:27:13.076Z,984.23
2023-04-09T04:28:12.986Z,984.26
2023-04-09T04:29:12.900Z,984.26
2023-04-09T04:30:12.815Z,984.27
2023-04-09T04:31:12.783Z,984.29
2023-04-09T04:32:12.643Z,984.27
2023-04-09T04:33:12.559Z,984.28
2023-04-09T04:34:12.477Z,984.30
2023-04-09T04:35:12.399Z,984.31
2023-04-09T04:36:12.305Z,984.32
2023-04-09T04:37:12.226Z,984.32
2023-04-09T04:38:12.144Z,984.33
2023-04-09T04:39:12.055Z,984.34
2023-04-09T04:40:11.967Z,984.36
2023-04-09T04:41:11.891Z,984.37
2023-04-09T04:42:11.803Z,984.40
2023-04-09T04:43:11.714Z,984.40
2023-04-09T04:44:11.632Z,984.40
2023-04-09T04:45:11.547Z,984.41
2023-04-09T04:46:11.497Z,984.43
2023-04-09T04:47:11.383Z,984.44
2023-04-09T04:48:11.293Z,984.44
2023-04-09T04:49:11.207Z,984.43
2023-04-09T04:50:11.122Z,984.47
2023-04-09T04:51:11.075Z,984.48
2023-04-09T04:52:10.953Z,984.48
2023-04-09T04:53:10.866Z,984.45
2023-04-09T04:54:10.781Z,984.47
2023-04-09T04:55:10.702Z,984.48
2023-04-09T04:56:10.617Z,984.45
2023-04-09T04:57:10.537Z,984.43
2023-04-09T04:58:10.443Z,984.46
2023-04-09T04:59:10.361Z,984.47
2023-04-09T05:00:10.278Z,984.50
2023-04-09T05:01:10.228Z,984.51
2023-04-09T05:02:10.219Z,984.47
2023-04-09T05:03:10.133Z,984.47
2023-04-09T05:04:09.934Z,984.47
2023-04-09T05:05:09.852Z,984.50
2023-04-09T05:06:09.765Z,984.50
2023-04-09T05:07:09.711Z,984.49
2023-04-09T05:08:09.600Z,984.53
2023-04-09T05:09:10.048Z,984.49
2023-04-09T05:10:09.425Z,984.49
2023-04-09T05:11:09.344Z,984.53
2023-04-09T05:12:09.261Z,984.52
2023-04-09T05:13:09.168Z,984.54
2023-04-09T05:14:09.087Z,984.53
2023-04-09T05:15:09.007Z,984.50
2023-04-09T05:16:08.947Z,984.52
2023-04-09T05:17:08.832Z,984.49
2023-04-09T05:18:08.750Z,984.52
2023-04-09T05:19:08.667Z,984.55
2023-04-09T05:20:08.589Z,984.52
2023-04-09T05:21:08.493Z,984.52
2023-04-09T05:22:08.405Z,984.51
2023-04-09T05:23:08.323Z,984.54
2023-04-09T05:24:08.237Z,984.50
2023-04-09T05:25:08.153Z,984.54
2023-04-09T05:26:08.071Z,984.53
2023-04-09T05:27:07.988Z,984.54
2023-04-09T05:28:07.897Z,984.57
2023-04-09T05:29:07.815Z,984.54
2023-04-09T05:30:07.743Z,984.54
2023-04-09T05:31:07.754Z,984.54
2023-04-09T05:32:07.561Z,984.55
2023-04-09T05:33:07.479Z,984.58
2023-04-09T05:34:07.394Z,984.59
2023-04-09T05:35:07.306Z,984.59
2023-04-09T05:36:07.241Z,984.60
2023-04-09T05:37:07.137Z,984.58
2023-04-09T05:38:07.056Z,984.54
2023-04-09T05:39:06.987Z,984.59
2023-04-09T05:40:06.888Z,984.61
2023-04-09T05:41:06.804Z,984.60
2023-04-09T05:42:06.742Z,984.61
2023-04-09T05:43:06.637Z,984.62
2023-04-09T05:44:06.545Z,984.63
2023-04-09T05:45:06.456Z,984.61
2023-04-09T05:46:06.403Z,984.66
2023-04-09T05:47:06.299Z,984.65
2023-04-09T05:48:06.200Z,984.68
2023-04-09T05:49:06.119Z,984.60
2023-04-09T05:50:06.062Z,984.63
2023-04-09T05:51:05.949Z,984.63
2023-04-09T05:52:05.873Z,984.64
2023-04-09T05:53:05.780Z,984.67
2023-04-09T05:54:05.697Z,984.64
2023-04-09T05:55:05.614Z,984.64
2023-04-09T05:56:05.522Z,984.62
2023-04-09T05:57:05.445Z,984.67
2023-04-09T05:58:05.369Z,984.63
2023-04-09T05:59:05.266Z,984.63
2023-04-09T06:00:05.193Z,984.63
2023-04-09T06:01:05.098Z,984.62
2023-04-09T06:02:05.145Z,984.67
2023-04-09T06:03:05.037Z,984.66
2023-04-09T06:04:05.261Z,984.65
2023-04-09T06:05:04.782Z,984.66
2023-04-09T06:06:04.673Z,984.68
2023-04-09T06:07:04.593Z,984.67
2023-04-09T06:08:04.508Z,984.67
2023-04-09T06:09:04.421Z,984.65
2023-04-09T06:10:04.342Z,984.70
2023-04-09T06:11:04.254Z,984.63
2023-04-09T06:12:04.174Z,984.65
2023-04-09T06:13:04.085Z,984.67
2023-04-09T06:14:03.997Z,984.69
2023-04-09T06:15:03.948Z,984.67
2023-04-09T06:16:03.853Z,984.64
2023-04-09T06:17:03.752Z,984.64
2023-04-09T06:18:03.711Z,984.66
2023-04-09T06:19:03.574Z,984.66
2023-04-09T06:20:03.482Z,984.65
2023-04-09T06:21:03.403Z,984.65
2023-04-09T06:22:03.319Z,984.70
2023-04-09T06:23:03.228Z,984.70
2023-04-09T06:24:03.145Z,984.69
2023-04-09T06:25:03.063Z,984.68
2023-04-09T06:26:02.974Z,984.68
2023-04-09T06:27:02.896Z,984.69
2023-04-09T06:28:02.846Z,984.68
2023-04-09T06:29:02.725Z,984.69
2023-04-09T06:30:02.642Z,984.66
2023-04-09T06:31:02.574Z,984.69
2023-04-09T06:32:02.466Z,984.65
2023-04-09T06:33:02.495Z,984.69
2023-04-09T06:34:02.292Z,984.70
2023-04-09T06:35:02.233Z,984.73
2023-04-09T06:36:02.157Z,984.71
2023-04-09T06:37:02.046Z,984.70
2023-04-09T06:38:01.962Z,984.71
2023-04-09T06:39:01.876Z,984.75
2023-04-09T06:40:01.845Z,984.76
2023-04-09T06:41:01.720Z,984.78
2023-04-09T06:42:01.619Z,984.82
2023-04-09T06:43:01.592Z,984.82
2023-04-09T06:44:01.452Z,984.83
2023-04-09T06:45:01.366Z,984.85
2023-04-09T06:46:01.315Z,984.81
2023-04-09T06:47:01.200Z,984.84
2023-04-09T06:48:01.172Z,984.85
2023-04-09T06:49:01.034Z,984.85
2023-04-09T06:50:00.945Z,984.88
2023-04-09T06:51:00.863Z,984.87
2023-04-09T06:52:00.772Z,984.88
2023-04-09T06:53:00.688Z,984.87
2023-04-09T06:54:00.700Z,984.88
2023-04-09T06:55:00.535Z,984.91
2023-04-09T06:56:00.472Z,984.94
2023-04-09T06:57:00.363Z,984.90
2023-04-09T06:58:00.272Z,984.91
2023-04-09T06:59:00.190Z,984.93
2023-04-09T07:00:00.110Z,984.96
2023-04-09T07:01:00.077Z,984.97
2023-04-09T07:02:00.012Z,984.99
2023-04-09T07:02:59.939Z,985.01
2023-04-09T07:03:59.941Z,985.04
2023-04-09T07:04:59.679Z,985.03
2023-04-09T07:05:59.592Z,985.03
2023-04-09T07:06:59.509Z,984.99
2023-04-09T07:07:59.429Z,985.03
2023-04-09T07:08:59.345Z,985.01
2023-04-09T07:09:59.264Z,985.01
2023-04-09T07:10:59.176Z,985.02
2023-04-09T07:11:59.093Z,985.03
2023-04-09T07:12:59.004Z,984.98
2023-04-09T07:13:58.936Z,984.98
2023-04-09T07:14:58.841Z,985.00
2023-04-09T07:15:58.781Z,985.07
2023-04-09T07:16:58.666Z,985.01
2023-04-09T07:17:58.713Z,985.05
2023-04-09T07:18:58.499Z,984.97
2023-04-09T07:19:58.443Z,985.00
2023-04-09T07:20:59.275Z,985.00
2023-04-09T07:21:58.252Z,985.02
2023-04-09T07:22:58.173Z,985.02
2023-04-09T07:23:58.084Z,985.03
2023-04-09T07:24:58.000Z,985.03
2023-04-09T07:25:57.928Z,985.02
2023-04-09T07:26:57.833Z,985.03
2023-04-09T07:27:57.753Z,985.01
2023-04-09T07:28:57.673Z,985.05
2023-04-09T07:29:57.836Z,985.05
2023-04-09T07:30:57.502Z,985.09
2023-04-09T07:31:57.423Z,985.07
2023-04-09T07:32:57.356Z,985.11
2023-04-09T07:33:57.254Z,985.07
2023-04-09T07:34:57.165Z,985.07
2023-04-09T07:35:57.117Z,985.07
2023-04-09T07:36:56.997Z,985.08
2023-04-09T07:37:56.918Z,985.09
2023-04-09T07:38:56.838Z,985.09
2023-04-09T07:39:56.758Z,985.08
2023-04-09T07:40:56.674Z,985.10
2023-04-09T07:41:58.212Z,985.11
2023-04-09T07:42:56.507Z,985.11
2023-04-09T07:43:56.415Z,985.13
2023-04-09T07:44:56.329Z,985.08
2023-04-09T07:45:56.249Z,985.10
2023-04-09T07:46:56.209Z,985.03
2023-04-09T07:47:56.107Z,985.08
2023-04-09T07:48:56.000Z,985.05
2023-04-09T07:49:55.925Z,985.07
2023-04-09T07:50:55.833Z,985.08
2023-04-09T07:51:55.761Z,985.06
2023-04-09T07:52:55.669Z,985.07
2023-04-09T07:53:55.589Z,985.12
2023-04-09T07:54:55.505Z,985.08
2023-04-09T07:55:55.427Z,985.13
2023-04-09T07:56:55.343Z,985.13
2023-04-09T07:57:55.262Z,985.10
2023-04-09T07:58:55.250Z,985.14
2023-04-09T07:59:55.097Z,985.13
2023-04-09T08:00:55.016Z,985.11
2023-04-09T08:01:55.002Z,985.13
2023-04-09T08:02:55.159Z,985.10
2023-04-09T08:03:54.880Z,985.13
2023-04-09T08:04:54.806Z,985.15
2023-04-09T08:05:54.609Z,985.17
2023-04-09T08:06:54.520Z,985.21
2023-04-09T08:07:54.483Z,985.19
2023-04-09T08:08:54.629Z,985.21
2023-04-09T08:09:54.279Z,985.18
2023-04-09T08:10:54.196Z,985.21
2023-04-09T08:11:54.146Z,985.19
2023-04-09T08:12:54.062Z,985.19
2023-04-09T08:13:53.957Z,985.18
2023-04-09T08:14:53.876Z,985.19
2023-04-09T08:15:53.791Z,985.23
2023-04-09T08:16:53.777Z,985.26
2023-04-09T08:17:53.658Z,985.22
2023-04-09T08:18:53.698Z,985.22
2023-04-09T08:19:53.467Z,985.22
2023-04-09T08:20:53.432Z,985.23
2023-04-09T08:21:53.313Z,985.27
2023-04-09T08:22:53.226Z,985.24
2023-04-09T08:23:53.145Z,985.25
2023-04-09T08:24:53.067Z,985.24
2023-04-09T08:25:53.004Z,985.30
2023-04-09T08:26:52.951Z,985.23
2023-04-09T08:27:52.824Z,985.28
2023-04-09T08:28:52.994Z,985.29
2023-04-09T08:29:52.656Z,985.29
2023-04-09T08:30:52.577Z,985.29
2023-04-09T08:31:52.534Z,985.30
2023-04-09T08:32:52.440Z,985.25
2023-04-09T08:33:52.337Z,985.26
2023-04-09T08:34:52.266Z,985.27
2023-04-09T08:35:52.173Z,985.24
2023-04-09T08:36:52.158Z,985.21
2023-04-09T08:37:52.014Z,985.27
2023-04-09T08:38:52.222Z,985.25
2023-04-09T08:39:51.850Z,985.24
2023-04-09T08:40:51.766Z,985.23
2023-04-09T08:41:51.686Z,985.26
2023-04-09T08:42:51.606Z,985.22
2023-04-09T08:43:57.558Z,985.26
2023-04-09T08:44:51.450Z,985.26
2023-04-09T08:45:51.378Z,985.22
2023-04-09T08:46:51.287Z,985.28
2023-04-09T08:47:51.284Z,985.23
2023-04-09T08:48:51.277Z,985.22
2023-04-09T08:49:51.048Z,985.25
2023-04-09T08:50:50.971Z,985.22
2023-04-09T08:51:50.885Z,985.24
2023-04-09T08:52:50.799Z,985.20
2023-04-09T08:53:50.723Z,985.21
2023-04-09T08:54:50.673Z,985.16
2023-04-09T08:55:50.567Z,985.13
2023-04-09T08:56:50.490Z,985.13
2023-04-09T08:57:50.405Z,985.15
2023-04-09T08:58:50.364Z,985.12
2023-04-09T08:59:50.248Z,985.19
2023-04-09T09:00:50.171Z,985.16
2023-04-09T09:01:50.133Z,985.20
2023-04-09T09:02:50.087Z,985.18
2023-04-09T09:03:50.014Z,985.21
2023-04-09T09:04:49.849Z,985.21
2023-04-09T09:05:49.778Z,985.21
2023-04-09T09:06:49.688Z,985.19
2023-04-09T09:07:49.605Z,985.19
2023-04-09T09:08:49.522Z,985.22
2023-04-09T09:09:49.441Z,985.17
2023-04-09T09:10:49.364Z,985.19
2023-04-09T09:11:49.286Z,985.21
2023-04-09T09:12:49.206Z,985.18
2023-04-09T09:13:49.126Z,985.17
2023-04-09T09:14:49.043Z,985.19
2023-04-09T09:15:48.966Z,985.18
2023-04-09T09:16:48.895Z,985.21
2023-04-09T09:17:48.820Z,985.19
2023-04-09T09:18:48.728Z,985.22
2023-04-09T09:19:48.648Z,985.23
2023-04-09T09:20:48.569Z,985.21
2023-04-09T09:21:48.505Z,985.20
2023-04-09T09:22:49.164Z,985.21
2023-04-09T09:23:48.413Z,985.21
2023-04-09T09:24:49.806Z,985.22
2023-04-09T09:25:48.168Z,985.21
2023-04-09T09:26:48.091Z,985.20
2023-04-09T09:27:48.015Z,985.18
2023-04-09T09:28:47.925Z,985.14
2023-04-09T09:29:47.849Z,985.22
2023-04-09T09:30:49.168Z,985.16
2023-04-09T09:31:47.721Z,985.20
2023-04-09T09:32:47.679Z,985.15
2023-04-09T09:33:47.549Z,985.15
2023-04-09T09:34:47.456Z,985.13
2023-04-09T09:35:47.382Z,985.12
2023-04-09T09:36:47.308Z,985.13
2023-04-09T09:37:47.220Z,985.11
2023-04-09T09:38:47.173Z,985.11
2023-04-09T09:39:47.067Z,985.13
2023-04-09T09:40:46.982Z,985.15
2023-04-09T09:41:46.988Z,985.19
2023-04-09T09:42:46.819Z,985.18
2023-04-09T09:43:46.754Z,985.16
2023-04-09T09:44:46.671Z,985.12
2023-04-09T09:45:46.611Z,985.16
2023-04-09T09:46:46.509Z,985.17
2023-04-09T09:47:46.473Z,985.16
2023-04-09T09:48:46.349Z,985.18
2023-04-09T09:49:46.278Z,985.20
2023-04-09T09:50:46.208Z,985.20
2023-04-09T09:51:46.120Z,985.14
2023-04-09T09:52:46.039Z,985.19
2023-04-09T09:53:48.380Z,985.18
2023-04-09T09:54:45.878Z,985.17
2023-04-09T09:55:45.799Z,985.17
2023-04-09T09:56:45.716Z,985.15
2023-04-09T09:57:45.657Z,985.16
2023-04-09T09:58:45.560Z,985.15
2023-04-09T09:59:45.484Z,985.18
2023-04-09T10:00:45.404Z,985.13
2023-04-09T10:01:45.415Z,985.09
2023-04-09T10:02:45.387Z,985.05
2023-04-09T10:03:45.175Z,985.08
2023-04-09T10:04:45.177Z,985.07
2023-04-09T10:05:45.006Z,985.06
2023-04-09T10:06:44.929Z,985.05
2023-04-09T10:07:44.855Z,985.06
2023-04-09T10:08:44.776Z,985.02
2023-04-09T10:09:44.695Z,984.96
2023-04-09T10:10:44.620Z,985.00
2023-04-09T10:11:44.534Z,984.95
2023-04-09T10:12:44.490Z,984.99
2023-04-09T10:13:44.386Z,984.98
2023-04-09T10:14:44.293Z,984.99
2023-04-09T10:15:44.270Z,984.97
2023-04-09T10:16:44.137Z,984.98
2023-04-09T10:17:44.102Z,985.00
2023-04-09T10:18:43.990Z,984.98
2023-04-09T10:19:43.914Z,984.97
2023-04-09T10:20:43.820Z,984.98
2023-04-09T10:21:43.753Z,985.02
2023-04-09T10:22:43.668Z,984.99
2023-04-09T10:23:43.593Z,985.00
2023-04-09T10:24:43.511Z,985.01
2023-04-09T10:25:43.448Z,985.01
2023-04-09T10:26:43.355Z,984.98
2023-04-09T10:27:43.273Z,985.01
2023-04-09T10:28:43.203Z,985.01
2023-04-09T10:29:43.116Z,985.03
2023-04-09T10:30:43.038Z,984.97
2023-04-09T10:31:43.015Z,984.97
2023-04-09T10:32:42.883Z,984.99
2023-04-09T10:33:42.802Z,985.01
2023-04-09T10:34:42.746Z,985.00
2023-04-09T10:35:42.709Z,984.99
2023-04-09T10:36:42.561Z,985.00
2023-04-09T10:37:42.483Z,984.98
2023-04-09T10:38:42.408Z,984.98
2023-04-09T10:39:42.345Z,984.98
2023-04-09T10:40:42.289Z,984.96
2023-04-09T10:41:42.213Z,985.00
2023-04-09T10:42:42.160Z,984.96
2023-04-09T10:43:42.026Z,984.94
2023-04-09T10:44:42.116Z,984.97
2023-04-09T10:45:41.899Z,984.93
2023-04-09T10:46:41.804Z,984.90
2023-04-09T10:47:41.758Z,984.92
2023-04-09T10:48:41.628Z,984.89
2023-04-09T10:49:41.545Z,984.88
2023-04-09T10:50:41.463Z,984.88
2023-04-09T10:51:41.384Z,984.90
2023-04-09T10:52:41.304Z,984.90
2023-04-09T10:53:41.233Z,984.89
2023-04-09T10:54:41.147Z,984.83
2023-04-09T10:55:41.083Z,984.82
2023-04-09T10:56:40.989Z,984.90
2023-04-09T10:57:40.917Z,984.86
2023-04-09T10:58:40.836Z,984.88
2023-04-09T10:59:40.760Z,984.90
2023-04-09T11:00:40.714Z,984.80
2023-04-09T11:01:40.677Z,984.82
2023-04-09T11:02:40.674Z,984.86
2023-04-09T11:03:40.546Z,984.88
2023-04-09T11:04:40.391Z,984.87
2023-04-09T11:05:40.323Z,984.87
2023-04-09T11:06:40.208Z,984.88
2023-04-09T11:07:40.127Z,984.90
2023-04-09T11:08:40.060Z,984.87
2023-04-09T11:09:39.988Z,984.88
2023-04-09T11:10:39.892Z,984.85
2023-04-09T11:11:39.813Z,984.87
2023-04-09T11:12:39.729Z,984.83
2023-04-09T11:13:39.652Z,984.84
2023-04-09T11:14:39.578Z,984.82
2023-04-09T11:15:39.502Z,984.79
2023-04-09T11:16:39.509Z,984.82
2023-04-09T11:17:39.378Z,984.77
2023-04-09T11:18:39.262Z,984.83
2023-04-09T11:19:39.182Z,984.83
2023-04-09T11:20:39.102Z,984.80
2023-04-09T11:21:39.021Z,984.78
2023-04-09T11:22:38.949Z,984.78
2023-04-09T11:23:38.866Z,984.73
2023-04-09T11:24:38.800Z,984.76
2023-04-09T11:25:38.709Z,984.76
2023-04-09T11:26:38.628Z,984.73
2023-04-09T11:27:38.581Z,984.71
2023-04-09T11:28:38.468Z,984.75
2023-04-09T11:29:38.391Z,984.71
2023-04-09T11:30:38.313Z,984.69
2023-04-09T11:31:39.595Z,984.70
2023-04-09T11:32:38.172Z,984.70
2023-04-09T11:33:38.071Z,984.70
2023-04-09T11:34:38.004Z,984.72
2023-04-09T11:35:37.968Z,984.71
2023-04-09T11:36:37.839Z,984.70
2023-04-09T11:37:37.755Z,984.71
2023-04-09T11:38:37.685Z,984.65
2023-04-09T11:39:37.623Z,984.71
2023-04-09T11:40:37.549Z,984.64
2023-04-09T11:41:37.461Z,984.64
2023-04-09T11:42:37.369Z,984.64
2023-04-09T11:43:37.290Z,984.63
2023-04-09T11:44:37.212Z,984.63
2023-04-09T11:45:37.132Z,984.63
2023-04-09T11:46:37.072Z,984.65
2023-04-09T11:47:37.035Z,984.64
2023-04-09T11:48:36.905Z,984.62
2023-04-09T11:49:36.820Z,984.64
2023-04-09T11:50:36.745Z,984.65
2023-04-09T11:51:36.667Z,984.69
2023-04-09T11:52:36.588Z,984.69
2023-04-09T11:53:36.516Z,984.68
2023-04-09T11:54:36.444Z,984.69
2023-04-09T11:55:36.360Z,984.69
2023-04-09T11:56:36.279Z,984.66
2023-04-09T11:57:36.197Z,984.64
2023-04-09T11:58:36.133Z,984.64
2023-04-09T11:59:36.042Z,984.65
2023-04-09T12:00:35.970Z,984.67
2023-04-09T12:01:35.944Z,984.66
2023-04-09T12:02:35.917Z,984.67
2023-04-09T12:03:35.802Z,984.67
2023-04-09T12:04:35.765Z,984.66
2023-04-09T12:05:35.576Z,984.65
2023-04-09T12:06:35.496Z,984.64
2023-04-09T12:07:35.423Z,984.64
2023-04-09T12:08:35.345Z,984.66
2023-04-09T12:09:35.257Z,984.67
2023-04-09T12:10:35.186Z,984.66
2023-04-09T12:11:35.099Z,984.62
2023-04-09T12:12:35.025Z,984.64
2023-04-09T12:13:34.944Z,984.62
2023-04-09T12:14:34.866Z,984.64
2023-04-09T12:15:34.790Z,984.60
2023-04-09T12:16:34.758Z,984.59
2023-04-09T12:17:34.680Z,984.60
2023-04-09T12:18:34.637Z,984.62
2023-04-09T12:19:34.475Z,984.62
2023-04-09T12:20:34.405Z,984.64
2023-04-09T12:21:34.320Z,984.58
2023-04-09T12:22:34.243Z,984.53
2023-04-09T12:23:34.166Z,984.57
2023-04-09T12:24:34.093Z,984.57
2023-04-09T12:25:34.007Z,984.59
2023-04-09T12:26:33.926Z,984.57
2023-04-09T12:27:34.029Z,984.56